Etusivu
METAR-TAF:

METAR-TAF

Lentoasemat :

Santiago de Cuba, Kuuba

Leveyspiiri: 19-58N, Pituuspiiri: 075-51W, korkeus merenpinnasta: 69 m

Tämänhetkinen sää

Tämä raportti tehtiin 21 minuuttia sitten, kello 21.51 UTC
Tuuli 13 kn idästä/kaakosta
Lämpötila 28°C
Kosteus 66%
Ilmanpaine 1014 hPa
Näkyvyys: 9000 m
Muutamia pilviä 2000 ft:n korkeudessa

METAR: MUCU 162151Z 12013KT 9000 FEW020 28/21 Q1014

Aika: 17:12 (22:12 UTC)

Sääennuste

Tämä raportti tehtiin 5 tuntia ja 12 minuuttia sitten, kello 17.00 UTC
Ennuste voimassa 16. päivästä klo 18 UTC - 17. päivään klo 18 UTC
Tuuli 10 kn etelästä/kaakosta
Näkyvyys: 9000 m
Hajanaisia pilviä 2000 ft:n korkeudessa
Tulossa
17. päivästä klo 01 UTC - 17. päivään klo 03 UTC
Tuuli 5 kn pohjoisesta
Tulossa
17. päivästä klo 15 UTC - 17. päivään klo 17 UTC
Tuuli 10 kn etelästä/kaakosta

TAF: MUCU 161700Z 1618/1718 16010KT 9000 SCT020 BECMG 1701/1703 36005KT BECMG 1715/1717 16010KT

Säähavainnot ja -ennusteet yli 4000 lentoasemalta (METAR- ja TAF-raportit).

Käytössä olevat sääasemat on merkitty karttaan keltaisilla ja punaisilla pisteillä.

Aseta hiiri pisteen päälle nähdäksesi sääaseman nimen.

Klikkaa sitten nähdäksesi säähavainnot ja -ennusteet.

Kartan vaihtaminen: klikkaa mustalla rastilla varustettuja vihreitä pisteitä, niin voit zoomata sisään; viivalla varustettua vihreää pistettä, niin voit zoomata ulos tai vihreitä nuolia, niin pääset viereisille kartoille.


METAR-TAF: